SPFLE EPMO-EPBC
Flight info
| Callsign | SPFLE |
|---|---|
| Flight time | 0h 30m |
| Altitude | 4000 |
| Route | EPMO/08 N0153F040 MULZA EPWA VFR DCT EPWAE DCT EPWAO DCT EPWAN DCT EPBCZ DCT EPBC |
| Aircraft | PA24/L-SDFG/S |
Departure
| Time | 2026-04-28 17:23 |
|---|---|
| Airport | Warsaw Modlin Airport (EPMO) |
Arrival
| Time | 2026-04-28 17:53 |
|---|---|
| Airport | Warsaw Babice Airport (EPBC) |
| Time | Latitude | Longitude | Altitude | Speed | Heading |
|---|---|---|---|---|---|
| 2026-04-28 17:06 | 52.44894 | 20.66712 | 625 ft | 0 kts | 351° |
| 2026-04-28 17:20 | 52.44910 | 20.66699 | 331 ft | 8 kts | 311° |
| 2026-04-28 17:20 | 52.44914 | 20.66610 | 333 ft | 9 kts | 264° |
| 2026-04-28 17:21 | 52.44900 | 20.66436 | 333 ft | 21 kts | 261° |
| 2026-04-28 17:21 | 52.44881 | 20.66199 | 333 ft | 14 kts | 276° |
| 2026-04-28 17:21 | 52.44945 | 20.66116 | 332 ft | 13 kts | 341° |
| 2026-04-28 17:22 | 52.45047 | 20.66056 | 333 ft | 7 kts | 341° |
| 2026-04-28 17:22 | 52.45126 | 20.66011 | 332 ft | 15 kts | 340° |
| 2026-04-28 17:22 | 52.45192 | 20.65996 | 333 ft | 11 kts | 34° |
| 2026-04-28 17:23 | 52.45343 | 20.67511 | 557 ft | 98 kts | 83° |
| 2026-04-28 17:23 | 52.45434 | 20.68673 | 842 ft | 108 kts | 83° |
| 2026-04-28 17:23 | 52.45533 | 20.69895 | 1222 ft | 106 kts | 82° |
| 2026-04-28 17:23 | 52.45641 | 20.71090 | 1549 ft | 109 kts | 82° |
| 2026-04-28 17:24 | 52.45746 | 20.72313 | 1904 ft | 109 kts | 83° |
| 2026-04-28 17:24 | 52.45852 | 20.73582 | 2184 ft | 114 kts | 83° |
| 2026-04-28 17:24 | 52.45956 | 20.74837 | 2546 ft | 111 kts | 83° |
| 2026-04-28 17:24 | 52.46063 | 20.76126 | 2814 ft | 116 kts | 83° |
| 2026-04-28 17:25 | 52.46170 | 20.77420 | 3125 ft | 116 kts | 83° |
| 2026-04-28 17:25 | 52.46383 | 20.80105 | 3647 ft | 122 kts | 89° |
| 2026-04-28 17:25 | 52.46162 | 20.81457 | 3752 ft | 135 kts | 124° |
| 2026-04-28 17:26 | 52.45435 | 20.82524 | 3767 ft | 146 kts | 145° |
| 2026-04-28 17:26 | 52.44579 | 20.83502 | 3750 ft | 154 kts | 146° |
| 2026-04-28 17:26 | 52.43679 | 20.84509 | 3746 ft | 159 kts | 147° |
| 2026-04-28 17:26 | 52.42760 | 20.85534 | 3744 ft | 161 kts | 147° |
| 2026-04-28 17:27 | 52.41831 | 20.86567 | 3746 ft | 162 kts | 147° |
| 2026-04-28 17:27 | 52.40898 | 20.87604 | 3746 ft | 162 kts | 147° |
| 2026-04-28 17:27 | 52.39964 | 20.88640 | 3746 ft | 162 kts | 147° |
| 2026-04-28 17:27 | 52.39027 | 20.89679 | 3746 ft | 163 kts | 147° |
| 2026-04-28 17:28 | 52.38104 | 20.90703 | 3747 ft | 163 kts | 147° |
| 2026-04-28 17:28 | 52.36227 | 20.92785 | 3746 ft | 163 kts | 147° |
| 2026-04-28 17:28 | 52.35288 | 20.93824 | 3746 ft | 163 kts | 147° |
| 2026-04-28 17:29 | 52.34351 | 20.94862 | 3745 ft | 163 kts | 147° |
| 2026-04-28 17:29 | 52.33415 | 20.95898 | 3745 ft | 163 kts | 147° |
| 2026-04-28 17:29 | 52.32478 | 20.96934 | 3746 ft | 163 kts | 147° |
| 2026-04-28 17:30 | 52.30605 | 20.99004 | 3746 ft | 162 kts | 147° |
| 2026-04-28 17:30 | 52.28733 | 21.01074 | 3746 ft | 163 kts | 147° |
| 2026-04-28 17:30 | 52.27809 | 21.02096 | 3746 ft | 162 kts | 147° |
| 2026-04-28 17:31 | 52.26874 | 21.03130 | 3746 ft | 162 kts | 147° |
| 2026-04-28 17:31 | 52.25003 | 21.05199 | 3746 ft | 162 kts | 147° |
| 2026-04-28 17:32 | 52.23129 | 21.07268 | 3743 ft | 163 kts | 147° |
| 2026-04-28 17:32 | 52.22193 | 21.08300 | 3745 ft | 162 kts | 147° |
| 2026-04-28 17:32 | 52.21256 | 21.09333 | 3746 ft | 162 kts | 147° |
| 2026-04-28 17:32 | 52.20321 | 21.10366 | 3747 ft | 162 kts | 147° |
| 2026-04-28 17:33 | 52.19397 | 21.11385 | 3746 ft | 162 kts | 147° |
| 2026-04-28 17:33 | 52.18462 | 21.12417 | 3746 ft | 163 kts | 147° |
| 2026-04-28 17:33 | 52.17525 | 21.13450 | 3747 ft | 163 kts | 147° |
| 2026-04-28 17:33 | 52.16893 | 21.14147 | 3746 ft | 163 kts | 147° |
| 2026-04-28 17:34 | 52.15652 | 21.15515 | 3746 ft | 163 kts | 147° |
| 2026-04-28 17:34 | 52.14715 | 21.16549 | 3745 ft | 162 kts | 147° |
| 2026-04-28 17:34 | 52.13780 | 21.17579 | 3745 ft | 162 kts | 147° |
| 2026-04-28 17:34 | 52.12853 | 21.18602 | 3707 ft | 160 kts | 147° |
| 2026-04-28 17:35 | 52.11921 | 21.19630 | 3558 ft | 163 kts | 147° |
| 2026-04-28 17:35 | 52.10985 | 21.20662 | 3468 ft | 161 kts | 147° |
| 2026-04-28 17:35 | 52.10060 | 21.21681 | 3317 ft | 162 kts | 147° |
| 2026-04-28 17:35 | 52.09129 | 21.22706 | 3177 ft | 160 kts | 147° |
| 2026-04-28 17:36 | 52.08240 | 21.23687 | 3110 ft | 153 kts | 147° |
| 2026-04-28 17:36 | 52.07365 | 21.24649 | 3016 ft | 151 kts | 147° |
| 2026-04-28 17:36 | 52.06500 | 21.25599 | 2886 ft | 152 kts | 147° |
| 2026-04-28 17:36 | 52.05575 | 21.26423 | 2748 ft | 152 kts | 166° |
| 2026-04-28 17:37 | 52.04563 | 21.26259 | 2740 ft | 144 kts | 196° |
| 2026-04-28 17:37 | 52.03614 | 21.25827 | 2736 ft | 140 kts | 196° |
| 2026-04-28 17:37 | 52.02691 | 21.25398 | 2739 ft | 137 kts | 197° |
| 2026-04-28 17:37 | 52.01782 | 21.24971 | 2742 ft | 135 kts | 197° |
| 2026-04-28 17:38 | 52.00892 | 21.24551 | 2744 ft | 135 kts | 197° |
| 2026-04-28 17:38 | 51.99994 | 21.24128 | 2746 ft | 134 kts | 197° |
| 2026-04-28 17:38 | 51.99238 | 21.23303 | 2751 ft | 134 kts | 235° |
| 2026-04-28 17:38 | 51.99014 | 21.21873 | 2748 ft | 134 kts | 275° |
| 2026-04-28 17:39 | 51.99239 | 21.20403 | 2743 ft | 135 kts | 285° |
| 2026-04-28 17:39 | 51.99515 | 21.18947 | 2744 ft | 135 kts | 286° |
| 2026-04-28 17:39 | 52.00084 | 21.16044 | 2746 ft | 135 kts | 287° |
| 2026-04-28 17:40 | 52.00371 | 21.14595 | 2746 ft | 135 kts | 287° |
| 2026-04-28 17:40 | 52.00658 | 21.13146 | 2746 ft | 134 kts | 287° |
| 2026-04-28 17:40 | 52.00940 | 21.11727 | 2742 ft | 129 kts | 287° |
| 2026-04-28 17:40 | 52.01285 | 21.10445 | 2743 ft | 123 kts | 307° |
| 2026-04-28 17:41 | 52.01967 | 21.09646 | 2746 ft | 122 kts | 330° |
| 2026-04-28 17:41 | 52.02717 | 21.08974 | 2752 ft | 124 kts | 329° |
| 2026-04-28 17:41 | 52.03474 | 21.08253 | 2701 ft | 130 kts | 327° |
| 2026-04-28 17:41 | 52.04237 | 21.07505 | 2722 ft | 128 kts | 331° |
| 2026-04-28 17:42 | 52.05035 | 21.06819 | 2682 ft | 131 kts | 331° |
| 2026-04-28 17:42 | 52.05568 | 21.06350 | 2659 ft | 132 kts | 329° |
| 2026-04-28 17:42 | 52.06642 | 21.05394 | 2532 ft | 131 kts | 330° |
| 2026-04-28 17:42 | 52.07450 | 21.04683 | 2409 ft | 132 kts | 330° |
| 2026-04-28 17:43 | 52.08254 | 21.03994 | 2235 ft | 132 kts | 329° |
| 2026-04-28 17:43 | 52.09059 | 21.03276 | 1949 ft | 133 kts | 333° |
| 2026-04-28 17:43 | 52.09871 | 21.02579 | 1714 ft | 130 kts | 327° |
| 2026-04-28 17:43 | 52.10615 | 21.01911 | 1474 ft | 115 kts | 332° |
| 2026-04-28 17:44 | 52.11302 | 21.01337 | 1256 ft | 106 kts | 331° |
| 2026-04-28 17:44 | 52.11935 | 21.00781 | 1148 ft | 101 kts | 329° |
| 2026-04-28 17:44 | 52.12547 | 21.00240 | 1061 ft | 101 kts | 330° |
| 2026-04-28 17:44 | 52.13163 | 20.99685 | 947 ft | 102 kts | 330° |
| 2026-04-28 17:45 | 52.13802 | 20.99128 | 778 ft | 106 kts | 330° |
| 2026-04-28 17:45 | 52.14456 | 20.98561 | 631 ft | 107 kts | 329° |
| 2026-04-28 17:45 | 52.15081 | 20.98014 | 453 ft | 99 kts | 330° |
| 2026-04-28 17:45 | 52.15652 | 20.97518 | 336 ft | 83 kts | 330° |
| 2026-04-28 17:46 | 52.16050 | 20.97166 | 335 ft | 67 kts | 330° |
| 2026-04-28 17:46 | 52.16386 | 20.96878 | 403 ft | 90 kts | 329° |
| 2026-04-28 17:46 | 52.16954 | 20.96469 | 585 ft | 104 kts | 344° |
| 2026-04-28 17:46 | 52.17678 | 20.96650 | 874 ft | 113 kts | 35° |
| 2026-04-28 17:47 | 52.18025 | 20.97786 | 1158 ft | 119 kts | 77° |
| 2026-04-28 17:47 | 52.18261 | 20.99127 | 1255 ft | 125 kts | 68° |
| 2026-04-28 17:47 | 52.18642 | 21.00394 | 1327 ft | 127 kts | 66° |
| 2026-04-28 17:47 | 52.18887 | 21.01290 | 1307 ft | 133 kts | 67° |
| 2026-04-28 17:48 | 52.19374 | 21.03167 | 1287 ft | 137 kts | 66° |
| 2026-04-28 17:48 | 52.19715 | 21.04605 | 1328 ft | 136 kts | 70° |
| 2026-04-28 17:48 | 52.20050 | 21.06063 | 1312 ft | 139 kts | 66° |
| 2026-04-28 17:48 | 52.20492 | 21.07474 | 1281 ft | 141 kts | 58° |
| 2026-04-28 17:49 | 52.21227 | 21.08477 | 1261 ft | 141 kts | 14° |
| 2026-04-28 17:49 | 52.22114 | 21.08016 | 1247 ft | 140 kts | 313° |
| 2026-04-28 17:49 | 52.22775 | 21.06867 | 1251 ft | 138 kts | 313° |
| 2026-04-28 17:49 | 52.23479 | 21.05807 | 1260 ft | 137 kts | 318° |
| 2026-04-28 17:50 | 52.24216 | 21.04797 | 1254 ft | 138 kts | 320° |
| 2026-04-28 17:50 | 52.24964 | 21.03817 | 1243 ft | 139 kts | 321° |
| 2026-04-28 17:50 | 52.25737 | 21.02898 | 1213 ft | 140 kts | 323° |
| 2026-04-28 17:50 | 52.26556 | 21.02019 | 1166 ft | 142 kts | 329° |
| 2026-04-28 17:51 | 52.27425 | 21.01271 | 1138 ft | 142 kts | 333° |
| 2026-04-28 17:51 | 52.28301 | 21.00493 | 1093 ft | 143 kts | 328° |
| 2026-04-28 17:51 | 52.28781 | 20.99269 | 1100 ft | 136 kts | 258° |
| 2026-04-28 17:51 | 52.28270 | 20.98074 | 1141 ft | 127 kts | 225° |
| 2026-04-28 17:52 | 52.27691 | 20.97079 | 1209 ft | 115 kts | 225° |
| 2026-04-28 17:52 | 52.27080 | 20.96244 | 1122 ft | 114 kts | 217° |
| 2026-04-28 17:52 | 52.26422 | 20.94364 | 833 ft | 102 kts | 282° |
| 2026-04-28 17:53 | 52.26570 | 20.93280 | 657 ft | 93 kts | 281° |
| 2026-04-28 17:53 | 52.26701 | 20.92296 | 499 ft | 85 kts | 281° |
| 2026-04-28 17:53 | 52.26824 | 20.91416 | 348 ft | 70 kts | 281° |
| 2026-04-28 17:53 | 52.26907 | 20.90816 | 345 ft | 37 kts | 288° |
| 2026-04-28 17:54 | 52.27012 | 20.90685 | 344 ft | 15 kts | 54° |
| 2026-04-28 17:54 | 52.27047 | 20.90808 | 343 ft | 12 kts | 66° |
| 2026-04-28 17:54 | 52.27083 | 20.90936 | 343 ft | 13 kts | 67° |
| 2026-04-28 17:54 | 52.27120 | 20.91074 | 344 ft | 14 kts | 67° |
| 2026-04-28 17:55 | 52.27134 | 20.91196 | 345 ft | 10 kts | 93° |
| 2026-04-28 17:55 | 52.27135 | 20.91311 | 341 ft | 8 kts | 96° |
| 2026-04-28 17:55 | 52.27162 | 20.91357 | 340 ft | 8 kts | 19° |
| 2026-04-28 17:55 | 52.27141 | 20.91389 | 340 ft | 4 kts | 208° |
| 2026-04-28 17:56 | 52.27149 | 20.91375 | 337 ft | 0 kts | 6° |